Friday, May 06, 2016
16:49 UTC
  |  Log In   |  Register Free
Airport Search:

Pilot Country Airport
(X05)

Pilot Country Airport Diagram
No Airport Diagram Available

FAA data valid effective Mar 31 2016 - May 26 2016 (unless otherwise noted).

 
 
 
 
 
 
 
 
 
 
 
 
 
 
Summary: Pilot Country (X05)

Weather Summary


METAR for X05 is not available. Closest METAR is for KZPH 19.0 nm NW
KZPH  (19.0 nm NW)   (most recent observation was updated at 61:63 UTC)
061635Z AUTO 30011G16KT 10SM CLR 23/04 A2993 RMK AO2 T02300039

KVDF  (20.6 nm NW)   (most recent observation was updated at 61:63 UTC)
061635Z AUTO 29005KT 10SM CLR 25/07 A2994 RMK AO2

TAF for X05 is not available.
KTPA  (21.4 nm NE)   (most recent observation was updatred at 61:45 UTC)
AMD 061458Z 0615/0712 36008KT P6SM FEW070 FM061800 30012G18KT P6SM SCT040 FM062300 30010KT P6SM SKC


KPIE  (27.2 nm NE)   (most recent observation was updatred at 61:13 UTC)
061133Z 0612/0712 03009KT P6SM SCT070 FM061500 32010KT P6SM SKC FM061800 30014G20KT P6SM SCT040 FM062300 31012KT P6SM SKC


KMCF  (28.9 nm NE)   (most recent observation was updatred at 61:60 UTC)
061600Z 0616/0722 VRB06KT 9999 SKC QNH2991INS BECMG 0617/0618 30015G20KT 9999 SKC QNH2985INS BECMG 0702/0703 VRB06KT 9999 FEW020 QNH2988INS TX29/0621Z TN17/0712Z
GlobalAir.com is loading additional information.
Current weather conditions are not available for X05.

The nearest NOAA weather station is at BKV (8.9 nm NE from X05)
 Current Weather at BKV
69.0 F° (20.6 C°)
Fair
Variable winds at 6.9 mph
Pressure:
29.95 in
Humidity:
41%
Wind:
Variable at 6.9 MPH (6 KT)
Dew Point:
44.1 F° (6.7 C°)
Visibility:
10.00 mi
X05 NOAA Radar

Runway Summary

ID Dimensions Surface Instrument Approaches
18/36 75 ft x 3700 ft Asphalt, Fair Condition N/A

Communications Summary


CTAF122.80
UNICOM122.80
ATISN/A
CLEARANCE DELIVERYN/A

Terminal Procedures Summary


No terminal procedures available for X05





Closest Alternate Airports with Instrument Procedures

KBKV - Hernando County - 10.2 nm NE from X05

KBKV - Hernando County - 10.2 nm NE from X05

KZPH - Zephyrhills Municipal - 21.9 nm SE from X05

KZPH - Zephyrhills Municipal - 21.9 nm SE from X05

KVDF - Vandenberg - 23.7 nm SE from X05

KVDF - Vandenberg - 23.7 nm SE from X05

KTPA - Tampa International - 24.6 nm SW from X05

KTPA - Tampa International - 24.6 nm SW from X05

KTPF - Peter O Knight - 28.8 nm SE from X05

KTPF - Peter O Knight - 28.8 nm SE from X05

Find All Airport Services Find A Hotel Find A Rental Car Find A Golf Course Find A Restaurant $100 Hamburger



FBO's on the Field
FBO Company Facility Photos Services Transportation Aviation Fuel Prices: Prices include tax
Catering Weather Repair Courtesy Rental Type 100LL JetA JetA+ MOGAS 8087
 
Pilot Country Airport, LLC

This FBO has not yet been rated
FS:Independent
Last Updated: May-02
Login to update fuel prices
SS:
Contact Pilot Country Airport, LLCMore FBO Information
 
Add another FBO Facility Photos Catering Weather Repair Courtesy Rental Type 100LL JetA JetA+ MOGAS 8087
Services Transportation Aviation Fuel Prices: Prices include tax


model-print
model-print
model-print
model-print